NCAR-RAP Real-Time Weather Data

Output produced by METARs form (20 February 2019  17:59 UTC)
found at http://weather.rap.ucar.edu/surface/
 
RJCM 201100Z 35005KT 9999 -SHSN FEW006 SCT008 BKN010 M04/M06 Q1016
RJCM 201000Z 35006KT 8000 -SHSN FEW005 SCT010 BKN020 M04/M05 Q1016
RJCM 200900Z 34005KT 8000 -SHSN FEW005 SCT008 BKN010 M03/M05 Q1016
RJCM 200846Z 34004KT 5000 -SHSN FEW003 SCT008 BKN010 M03/M05 Q1016 RMK 1ST003 3ST008 6ST010 A3001
RJCM 200800Z 34006KT 3500 -SHSN FEW002 SCT006 BKN010 M03/M04 Q1016
RJCM 200700Z 35008KT 4900 -SHSN FEW003 SCT007 BKN010 M03/M04 Q1015
RJCM 200631Z 35008KT 4900 -SHSN FEW004 SCT008 BKN010 M03/M04 Q1015 RMK 1ST004 3ST008 6ST010 A3000
RJCM 200600Z 32007KT 290V350 9999 -SHSN FEW005 SCT008 BKN010 M02/M05 Q1015
RJCM 200500Z 32004KT 270V360 9999 -SHSN FEW005 SCT008 BKN010 M02/M05 Q1015
RJCM 200400Z 33008KT 9999 FEW005 SCT010 BKN020 M02/M05 Q1014
RJCM 200300Z 02010KT 9999 -SHSN FEW005 SCT007 BKN025 M03/M05 Q1014
RJCM 200200Z 01011KT 7000 -SHSN FEW005 SCT010 BKN015 M02/M05 Q1014
RJCM 200121Z 36013KT 5000 -SHSN FEW005 BKN015 M01/M04 Q1014 RMK 1ST005 7ST015 A2995
RJCM 200100Z 36013KT 4900 -SHSN FEW005 SCT010 BKN015 M01/M03 Q1014
RJCM 200000Z VRB02KT 9999 FEW010 SCT030 BKN050 M02/M07 Q1013
RJCM 192300Z 26002KT 9999 FEW030 SCT050 BKN090 M03/M08 Q1013
RJCM 192245Z VRB02KT 9999 FEW030 BKN050 BKN090 M04/M08 Q1013 RMK 1CU030 5CU050 7AC090 A2993
RJCM 191100Z 19003KT CAVOK M03/M09 Q1016
RJCM 191000Z 11003KT 080V150 CAVOK M05/M09 Q1016
RJCM 190900Z 21002KT CAVOK M03/M09 Q1016
RJCM 190800Z 24002KT CAVOK M02/M10 Q1017
RJCM 190700Z 17002KT CAVOK M02/M09 Q1017
RJCM 190600Z 17004KT CAVOK M02/M08 Q1018
RJCM 190500Z VRB02KT CAVOK M01/M10 Q1017
RJCM 190400Z 17005KT CAVOK M02/M10 Q1018
RJCM 190300Z 17005KT CAVOK M03/M10 Q1019
RJCM 190200Z 19005KT CAVOK M04/M11 Q1020
RJCM 190100Z 17007KT CAVOK M07/M12 Q1020
RJCM 190000Z 19005KT CAVOK M09/M13 Q1021
RJCM 182300Z 16006KT CAVOK M12/M15 Q1021
RJCM 182245Z 16006KT CAVOK M12/M16 Q1021 RMK A3017
RJCM 181100Z 21003KT 150V300 9999 FEW020 M09/M11 Q1020
RJCM 181000Z 17003KT 140V200 9999 FEW020 SCT050 M12/M16 Q1020
RJCM 180900Z 16003KT 9999 FEW020 SCT050 M08/M11 Q1020
RJCM 180800Z VRB02KT 9999 FEW020 SCT050 M05/M09 Q1019
RJCM 180700Z 09003KT 9999 FEW010 SCT040 M04/M08 Q1018
RJCM 180600Z 01006KT 9999 -SHSN FEW010 SCT015 BKN030 M04/M07 Q1018